Time;durP1;ratioP1;P1;durP2;ratioP2;P2;SDS_P1;SDS_P2;PMS_P1;PMS_P2;Temp;Humidity;BMP_temperature;BMP_pressure;BME280_temperature;BME280_humidity;BME280_pressure;Samples;Min_cycle;Max_cycle;Signal;HPM_P1;HPM_P2
2021/11/13 00:01:49;;;;;;;;;;;10.80;59.70;;;;;;5053535;28;19908;-64
2021/11/13 00:04:15;;;;;;;;;;;10.80;59.70;;;;;;5053490;28;19908;-64
2021/11/13 00:06:40;;;;;;;;;;;10.80;59.70;;;;;;5053409;28;19909;-64
2021/11/13 00:09:06;;;;;;;;;;;10.80;59.70;;;;;;5053385;28;20324;-64
2021/11/13 00:11:32;;;;;;;;;;;10.80;59.70;;;;;;5053331;28;20420;-64
2021/11/13 00:14:01;;;;;;;;;;;10.80;59.70;;;;;;5051811;28;19920;-64
2021/11/13 00:16:27;;;;;;;;;;;10.80;59.70;;;;;;5053264;28;19963;-64
2021/11/13 00:18:53;;;;;;;;;;;10.80;59.70;;;;;;5053155;28;19915;-64
2021/11/13 00:21:18;;;;;;;;;;;10.80;59.70;;;;;;5053100;28;19909;-64
2021/11/13 00:23:44;;;;;;;;;;;10.80;59.80;;;;;;5053034;28;20000;-64
2021/11/13 00:26:10;;;;;;;;;;;10.80;59.80;;;;;;5053089;28;19916;-64
2021/11/13 00:28:36;;;;;;;;;;;10.90;59.80;;;;;;5052942;28;19909;-64
2021/11/13 00:31:01;;;;;;;;;;;10.80;59.70;;;;;;5053005;28;19909;-64
2021/11/13 00:33:27;;;;;;;;;;;10.80;59.70;;;;;;5052878;28;19909;-64
2021/11/13 00:35:53;;;;;;;;;;;10.80;59.70;;;;;;5052147;28;19948;-64
2021/11/13 00:38:20;;;;;;;;;;;10.90;59.70;;;;;;5052878;28;19909;-64
2021/11/13 00:40:46;;;;;;;;;;;10.80;59.70;;;;;;5052867;28;19909;-64
2021/11/13 00:43:12;;;;;;;;;;;10.80;59.70;;;;;;5052855;28;20381;-64
2021/11/13 00:45:37;;;;;;;;;;;10.80;59.70;;;;;;5052631;28;20325;-64
2021/11/13 00:48:03;;;;;;;;;;;10.80;59.70;;;;;;5052665;28;19996;-64
2021/11/13 00:50:29;;;;;;;;;;;10.80;59.70;;;;;;5052815;28;19909;-64
2021/11/13 00:52:54;;;;;;;;;;;10.80;59.80;;;;;;5052767;28;19916;-63
2021/11/13 00:55:20;;;;;;;;;;;10.80;59.80;;;;;;5052713;28;19909;-64
2021/11/13 00:57:46;;;;;;;;;;;10.80;59.80;;;;;;5052645;28;19991;-64
2021/11/13 01:00:14;;;;;;;;;;;10.80;59.90;;;;;;5052583;28;20418;-64
2021/11/13 01:02:39;;;;;;;;;;;10.80;59.80;;;;;;5052463;28;20290;-65
2021/11/13 01:05:05;;;;;;;;;;;10.80;59.80;;;;;;5052627;28;19916;-64
2021/11/13 01:07:31;;;;;;;;;;;10.80;59.80;;;;;;5052673;28;19931;-64
2021/11/13 01:09:57;;;;;;;;;;;10.80;59.80;;;;;;5052708;28;19992;-64
2021/11/13 01:12:22;;;;;;;;;;;10.80;59.80;;;;;;5052646;28;19948;-64
2021/11/13 01:14:48;;;;;;;;;;;10.80;59.80;;;;;;5052438;28;19999;-64
2021/11/13 01:17:14;;;;;;;;;;;10.90;59.90;;;;;;5052552;28;20072;-64
2021/11/13 01:19:40;;;;;;;;;;;10.90;59.90;;;;;;5051315;28;20367;-64
2021/11/13 01:22:06;;;;;;;;;;;10.90;59.90;;;;;;5052539;28;19912;-64
2021/11/13 01:24:32;;;;;;;;;;;10.90;59.90;;;;;;5052457;28;19995;-64
2021/11/13 01:26:58;;;;;;;;;;;10.90;59.80;;;;;;5052535;28;19905;-64
2021/11/13 01:29:23;;;;;;;;;;;10.90;59.80;;;;;;5052456;28;19936;-64
2021/11/13 01:31:49;;;;;;;;;;;10.90;59.80;;;;;;5052648;28;19905;-64
2021/11/13 01:34:15;;;;;;;;;;;10.90;59.80;;;;;;5052394;28;19924;-63
2021/11/13 01:36:40;;;;;;;;;;;10.90;59.70;;;;;;5052321;28;19913;-64
2021/11/13 01:39:06;;;;;;;;;;;10.90;59.70;;;;;;5052298;28;19935;-64
2021/11/13 01:41:32;;;;;;;;;;;10.90;59.80;;;;;;5052332;28;19915;-64
2021/11/13 01:43:58;;;;;;;;;;;10.90;59.80;;;;;;5052358;28;20329;-64
2021/11/13 01:46:24;;;;;;;;;;;10.90;59.80;;;;;;5053482;28;19967;-64
2021/11/13 01:48:50;;;;;;;;;;;10.90;59.80;;;;;;5054693;28;19932;-64
2021/11/13 01:51:22;;;;;;;;;;;10.90;59.70;;;;;;5056263;28;20301;-64
2021/11/13 01:53:49;;;;;;;;;;;10.90;59.70;;;;;;5056195;28;19909;-64
2021/11/13 01:56:21;;;;;;;;;;;10.90;59.80;;;;;;5054756;28;19913;-64
2021/11/13 01:58:49;;;;;;;;;;;10.90;59.70;;;;;;5056006;28;20278;-63
2021/11/13 02:01:14;;;;;;;;;;;10.90;59.70;;;;;;5055743;28;20251;-64
2021/11/13 02:03:40;;;;;;;;;;;10.90;59.70;;;;;;5055583;28;19915;-64
2021/11/13 02:06:06;;;;;;;;;;;10.90;59.70;;;;;;5055448;28;19905;-64
2021/11/13 02:08:32;;;;;;;;;;;10.90;59.70;;;;;;5054171;28;19913;-64
2021/11/13 02:10:57;;;;;;;;;;;10.90;59.70;;;;;;5055364;28;20001;-64
2021/11/13 02:13:23;;;;;;;;;;;10.90;59.70;;;;;;5055184;28;20008;-64
2021/11/13 02:15:48;;;;;;;;;;;10.90;59.70;;;;;;5053950;28;19908;-64
2021/11/13 02:18:14;;;;;;;;;;;10.90;59.70;;;;;;5055285;28;19909;-64
2021/11/13 02:20:41;;;;;;;;;;;10.90;59.70;;;;;;5055293;28;20377;-64
2021/11/13 02:23:09;;;;;;;;;;;10.90;59.70;;;;;;5055206;28;19959;-64
2021/11/13 02:25:35;;;;;;;;;;;10.90;59.60;;;;;;5055208;28;20370;-64
2021/11/13 02:28:01;;;;;;;;;;;10.90;59.60;;;;;;5055222;28;19931;-64
2021/11/13 02:30:27;;;;;;;;;;;10.90;59.50;;;;;;5055051;28;19909;-63
2021/11/13 02:32:54;;;;;;;;;;;10.90;59.40;;;;;;5054972;28;19912;-64
2021/11/13 02:35:20;;;;;;;;;;;10.90;59.40;;;;;;5055016;28;19909;-64
2021/11/13 02:37:46;;;;;;;;;;;10.90;59.40;;;;;;5054910;28;19913;-63
2021/11/13 02:40:12;;;;;;;;;;;10.90;59.40;;;;;;5054962;28;19958;-64
2021/11/13 02:42:39;;;;;;;;;;;10.90;59.40;;;;;;5054859;28;20079;-64
2021/11/13 02:45:05;;;;;;;;;;;10.90;59.40;;;;;;5054825;28;20046;-64
2021/11/13 02:47:34;;;;;;;;;;;10.90;59.40;;;;;;5054903;28;19948;-64
2021/11/13 02:50:00;;;;;;;;;;;10.90;59.40;;;;;;5054900;28;19909;-64
2021/11/13 02:52:25;;;;;;;;;;;10.80;59.30;;;;;;5054703;28;20354;-64
2021/11/13 02:54:52;;;;;;;;;;;10.90;59.30;;;;;;5086650;28;19912;-65
2021/11/13 02:57:18;;;;;;;;;;;10.90;59.30;;;;;;5093666;28;19956;-64
2021/11/13 02:59:47;;;;;;;;;;;10.90;59.30;;;;;;5087698;28;19912;-65
2021/11/13 03:02:13;;;;;;;;;;;10.90;59.20;;;;;;5082723;28;20002;-65
2021/11/13 03:04:38;;;;;;;;;;;10.80;59.10;;;;;;5074733;28;19959;-64
2021/11/13 03:07:04;;;;;;;;;;;10.80;59.10;;;;;;5085986;28;19908;-64
2021/11/13 03:09:30;;;;;;;;;;;10.80;59.10;;;;;;5074864;28;19913;-64
2021/11/13 03:11:56;;;;;;;;;;;10.80;59.10;;;;;;5067835;28;19916;-64
2021/11/13 03:14:22;;;;;;;;;;;10.80;59.00;;;;;;5074128;28;19917;-65
2021/11/13 03:16:47;;;;;;;;;;;10.70;59.00;;;;;;5074201;28;20285;-64
2021/11/13 03:19:13;;;;;;;;;;;10.70;59.00;;;;;;5074796;28;19999;-64
2021/11/13 03:21:41;;;;;;;;;;;10.70;59.00;;;;;;5082585;28;19932;-64
2021/11/13 03:24:07;;;;;;;;;;;10.70;59.00;;;;;;5055494;28;19920;-65
2021/11/13 03:26:33;;;;;;;;;;;10.70;59.10;;;;;;5073964;28;19908;-64
2021/11/13 03:29:02;;;;;;;;;;;10.70;59.10;;;;;;5072818;28;20286;-64
2021/11/13 03:31:29;;;;;;;;;;;10.70;59.20;;;;;;5077815;28;20285;-64
2021/11/13 03:33:54;;;;;;;;;;;10.60;59.20;;;;;;5093280;28;19908;-64
2021/11/13 03:36:21;;;;;;;;;;;10.60;59.20;;;;;;5080467;28;19923;-64
2021/11/13 03:38:48;;;;;;;;;;;10.60;59.20;;;;;;5072759;28;19913;-64
2021/11/13 03:41:14;;;;;;;;;;;10.70;59.30;;;;;;5072698;28;19909;-64
2021/11/13 03:43:40;;;;;;;;;;;10.70;59.30;;;;;;5072586;28;19996;-64
2021/11/13 03:46:07;;;;;;;;;;;10.70;59.20;;;;;;5077937;28;20023;-64
2021/11/13 03:48:32;;;;;;;;;;;10.70;59.20;;;;;;5092977;28;19908;-64
2021/11/13 03:50:58;;;;;;;;;;;10.70;59.20;;;;;;5092280;28;19969;-64
2021/11/13 03:53:24;;;;;;;;;;;10.70;59.20;;;;;;5092922;28;20326;-64
2021/11/13 03:55:50;;;;;;;;;;;10.70;59.20;;;;;;5088866;28;19908;-64
2021/11/13 03:58:15;;;;;;;;;;;10.70;59.20;;;;;;5072616;28;20361;-64
2021/11/13 04:00:41;;;;;;;;;;;10.70;59.20;;;;;;5074510;28;19917;-64
2021/11/13 04:03:07;;;;;;;;;;;10.70;59.10;;;;;;5092740;28;19908;-64
2021/11/13 04:05:32;;;;;;;;;;;10.70;59.00;;;;;;5080203;28;19941;-64
2021/11/13 04:07:58;;;;;;;;;;;10.70;59.10;;;;;;5092656;28;19971;-64
2021/11/13 04:10:24;;;;;;;;;;;10.70;59.10;;;;;;5091373;28;19962;-64
2021/11/13 04:12:50;;;;;;;;;;;10.70;59.10;;;;;;5091297;28;19994;-64
2021/11/13 04:15:16;;;;;;;;;;;10.80;59.10;;;;;;5082424;28;20019;-64
2021/11/13 04:17:42;;;;;;;;;;;10.80;59.10;;;;;;5089408;28;20010;-64
2021/11/13 04:20:08;;;;;;;;;;;10.80;59.00;;;;;;5092228;28;19912;-64
2021/11/13 04:22:34;;;;;;;;;;;10.80;59.00;;;;;;5084560;28;19913;-64
2021/11/13 04:24:59;;;;;;;;;;;10.80;58.90;;;;;;5059813;28;19912;-64
2021/11/13 04:27:25;;;;;;;;;;;10.80;58.90;;;;;;5087358;28;19947;-64
2021/11/13 04:29:51;;;;;;;;;;;10.80;59.00;;;;;;5091076;28;20370;-64
2021/11/13 04:32:17;;;;;;;;;;;10.80;58.90;;;;;;5089941;28;19913;-65
2021/11/13 04:35:03;;;;;;;;;;;10.80;58.90;;;;;;5092068;28;19958;-64
2021/11/13 04:37:29;;;;;;;;;;;10.80;58.90;;;;;;5076197;28;20270;-64
2021/11/13 04:39:55;;;;;;;;;;;10.80;58.90;;;;;;5072035;28;19955;-64
2021/11/13 04:42:21;;;;;;;;;;;10.80;58.90;;;;;;5071975;28;20042;-64
2021/11/13 04:44:48;;;;;;;;;;;10.80;58.80;;;;;;5085813;28;20002;-64
2021/11/13 04:47:14;;;;;;;;;;;10.80;58.80;;;;;;5077055;28;19913;-64
2021/11/13 04:49:40;;;;;;;;;;;10.80;58.80;;;;;;5064670;28;19916;-64
2021/11/13 04:52:06;;;;;;;;;;;10.80;58.80;;;;;;5092050;28;19957;-64
2021/11/13 04:54:32;;;;;;;;;;;10.80;58.70;;;;;;5092036;28;19908;-64
2021/11/13 04:56:58;;;;;;;;;;;10.70;58.70;;;;;;5080685;28;19916;-65
2021/11/13 04:59:23;;;;;;;;;;;10.70;58.70;;;;;;5072649;28;19924;-64
2021/11/13 05:01:49;;;;;;;;;;;10.70;58.70;;;;;;5077581;28;20427;-64
2021/11/13 05:04:14;;;;;;;;;;;10.70;58.80;;;;;;5090315;28;19908;-64
2021/11/13 05:06:40;;;;;;;;;;;10.70;58.80;;;;;;5079678;28;19948;-64
2021/11/13 05:09:06;;;;;;;;;;;10.70;58.90;;;;;;5066199;28;20327;-64
2021/11/13 05:11:31;;;;;;;;;;;10.70;58.80;;;;;;5062837;28;19936;-64
2021/11/13 05:13:57;;;;;;;;;;;10.70;58.80;;;;;;5070762;28;19981;-64
2021/11/13 05:16:22;;;;;;;;;;;10.70;58.80;;;;;;5076577;28;20015;-64
2021/11/13 05:18:48;;;;;;;;;;;10.70;58.80;;;;;;5091906;28;19969;-64
2021/11/13 05:21:14;;;;;;;;;;;10.70;58.80;;;;;;5091203;28;19915;-64
2021/11/13 05:23:39;;;;;;;;;;;10.70;58.80;;;;;;5095758;28;20396;-64
2021/11/13 05:26:05;;;;;;;;;;;10.70;58.80;;;;;;5088799;28;19912;-64
2021/11/13 05:28:31;;;;;;;;;;;10.70;58.70;;;;;;5095651;28;20006;-64
2021/11/13 05:30:56;;;;;;;;;;;10.70;58.70;;;;;;5092566;28;19908;-64
2021/11/13 05:33:26;;;;;;;;;;;10.70;58.70;;;;;;5095247;28;19919;-65
2021/11/13 05:35:52;;;;;;;;;;;10.60;58.70;;;;;;5094270;28;20427;-64
2021/11/13 05:38:18;;;;;;;;;;;10.60;58.60;;;;;;5075309;28;19955;-65
2021/11/13 05:40:44;;;;;;;;;;;10.60;58.70;;;;;;5074928;28;20006;-64
2021/11/13 05:43:09;;;;;;;;;;;10.60;58.70;;;;;;5075087;28;19959;-64
2021/11/13 05:45:35;;;;;;;;;;;10.60;58.80;;;;;;5056508;28;20455;-64
2021/11/13 05:48:01;;;;;;;;;;;10.60;58.80;;;;;;5092018;28;19958;-64
2021/11/13 05:50:26;;;;;;;;;;;10.60;58.90;;;;;;5094646;28;20293;-65
2021/11/13 05:52:52;;;;;;;;;;;10.60;58.90;;;;;;5095195;28;19908;-65
2021/11/13 05:55:19;;;;;;;;;;;10.70;59.00;;;;;;5094969;28;19912;-64
2021/11/13 05:57:45;;;;;;;;;;;10.70;59.00;;;;;;5078622;28;20343;-65
2021/11/13 06:00:12;;;;;;;;;;;10.70;58.90;;;;;;5074709;28;19913;-64
2021/11/13 06:02:38;;;;;;;;;;;10.60;58.80;;;;;;5075817;28;19913;-64
2021/11/13 06:05:04;;;;;;;;;;;10.70;58.90;;;;;;5074783;28;19954;-64
2021/11/13 06:07:30;;;;;;;;;;;10.70;58.80;;;;;;5088237;28;19916;-64
2021/11/13 06:09:55;;;;;;;;;;;10.60;58.80;;;;;;5063783;28;19922;-64
2021/11/13 06:12:21;;;;;;;;;;;10.70;58.80;;;;;;5075584;28;19919;-64
2021/11/13 06:14:46;;;;;;;;;;;10.70;58.80;;;;;;5074281;28;19928;-64
2021/11/13 06:17:12;;;;;;;;;;;10.60;58.60;;;;;;5075503;28;20023;-64
2021/11/13 06:19:37;;;;;;;;;;;10.60;58.60;;;;;;5074374;28;19916;-64
2021/11/13 06:22:03;;;;;;;;;;;10.60;58.60;;;;;;5074455;28;19911;-64
2021/11/13 06:24:29;;;;;;;;;;;10.60;58.60;;;;;;5073065;28;19965;-64
2021/11/13 06:26:54;;;;;;;;;;;10.60;58.60;;;;;;5082547;28;19976;-64
2021/11/13 06:29:20;;;;;;;;;;;10.60;58.70;;;;;;5083708;28;19919;-64
2021/11/13 06:31:45;;;;;;;;;;;10.60;58.80;;;;;;5093937;28;19917;-64
2021/11/13 06:34:11;;;;;;;;;;;10.60;58.90;;;;;;5093540;28;20285;-64
2021/11/13 06:36:37;;;;;;;;;;;10.60;58.80;;;;;;5088254;28;19966;-64
2021/11/13 06:39:02;;;;;;;;;;;10.60;58.80;;;;;;5074152;28;19909;-64
2021/11/13 06:41:30;;;;;;;;;;;10.50;58.80;;;;;;5074093;28;20479;-64
2021/11/13 06:43:59;;;;;;;;;;;10.50;58.80;;;;;;5075126;28;19952;-64
2021/11/13 06:46:26;;;;;;;;;;;10.60;58.80;;;;;;5077833;28;20314;-64
2021/11/13 06:48:51;;;;;;;;;;;10.60;58.80;;;;;;5094317;28;19908;-65
2021/11/13 06:51:17;;;;;;;;;;;10.60;58.90;;;;;;5094247;28;19981;-64
2021/11/13 06:53:43;;;;;;;;;;;10.50;58.90;;;;;;5093886;28;20003;-64
2021/11/13 06:56:09;;;;;;;;;;;10.50;58.90;;;;;;5091904;28;19958;-64
2021/11/13 06:58:35;;;;;;;;;;;10.60;58.90;;;;;;5072663;28;19908;-64
2021/11/13 07:01:00;;;;;;;;;;;10.60;59.00;;;;;;5088922;28;20000;-64
2021/11/13 07:03:26;;;;;;;;;;;10.60;59.00;;;;;;5077714;28;19912;-64
2021/11/13 07:05:51;;;;;;;;;;;10.60;59.10;;;;;;5073622;28;20258;-64
2021/11/13 07:08:17;;;;;;;;;;;10.60;59.00;;;;;;5081072;28;20430;-64
2021/11/13 07:10:43;;;;;;;;;;;10.60;59.00;;;;;;5053654;28;19916;-64
2021/11/13 07:13:08;;;;;;;;;;;10.70;59.10;;;;;;5053416;28;20004;-64
2021/11/13 07:15:34;;;;;;;;;;;10.70;59.10;;;;;;5066009;28;19919;-64
2021/11/13 07:18:02;;;;;;;;;;;10.70;59.10;;;;;;5089531;28;20006;-64
2021/11/13 07:20:28;;;;;;;;;;;10.70;59.00;;;;;;5093322;28;20002;-64
2021/11/13 07:22:54;;;;;;;;;;;10.70;58.90;;;;;;5084084;28;20003;-64
2021/11/13 07:25:19;;;;;;;;;;;10.80;58.90;;;;;;5073151;28;19915;-64
2021/11/13 07:27:46;;;;;;;;;;;10.80;58.80;;;;;;5072958;28;20399;-63
2021/11/13 07:30:15;;;;;;;;;;;10.80;58.80;;;;;;5073940;28;19912;-63
2021/11/13 07:32:41;;;;;;;;;;;10.80;58.80;;;;;;5072670;28;20404;-64
2021/11/13 07:35:07;;;;;;;;;;;10.80;58.90;;;;;;5073223;28;19931;-64
2021/11/13 07:37:32;;;;;;;;;;;10.80;58.80;;;;;;5074691;28;19923;-63
2021/11/13 07:39:58;;;;;;;;;;;10.90;58.90;;;;;;5073273;28;19913;-64
2021/11/13 07:42:24;;;;;;;;;;;10.90;58.90;;;;;;5091513;28;20277;-64
2021/11/13 07:44:49;;;;;;;;;;;10.90;58.80;;;;;;5092061;28;19912;-64
2021/11/13 07:47:16;;;;;;;;;;;10.90;58.80;;;;;;5094038;28;19908;-64
2021/11/13 07:49:41;;;;;;;;;;;10.90;58.80;;;;;;5093463;28;19926;-64
2021/11/13 07:52:07;;;;;;;;;;;11.00;58.80;;;;;;5093486;28;19916;-64
2021/11/13 07:54:33;;;;;;;;;;;11.00;58.80;;;;;;5089012;28;19999;-64
2021/11/13 07:56:59;;;;;;;;;;;11.00;58.70;;;;;;5073542;28;19956;-64
2021/11/13 07:59:24;;;;;;;;;;;11.00;58.60;;;;;;5073313;28;19908;-64
2021/11/13 08:01:50;;;;;;;;;;;11.00;58.50;;;;;;5073367;28;19912;-64
2021/11/13 08:04:16;;;;;;;;;;;11.00;58.40;;;;;;5084260;28;19934;-64
2021/11/13 08:06:41;;;;;;;;;;;11.00;58.40;;;;;;5093789;28;20346;-64
2021/11/13 08:09:07;;;;;;;;;;;11.00;58.30;;;;;;5092976;28;19915;-63
2021/11/13 08:11:33;;;;;;;;;;;11.00;58.30;;;;;;5076216;28;19913;-64
2021/11/13 08:13:59;;;;;;;;;;;11.10;58.40;;;;;;5072861;28;19917;-64
2021/11/13 08:16:25;;;;;;;;;;;11.10;58.40;;;;;;5072555;28;20443;-64
2021/11/13 08:18:51;;;;;;;;;;;11.10;58.30;;;;;;5072973;28;19916;-64
2021/11/13 08:21:16;;;;;;;;;;;11.10;58.90;;;;;;5074627;28;20273;-64
2021/11/13 08:23:42;;;;;;;;;;;11.10;58.20;;;;;;5073056;28;19908;-63
2021/11/13 08:26:09;;;;;;;;;;;11.10;58.20;;;;;;5081526;28;20389;-63
2021/11/13 08:28:34;;;;;;;;;;;11.10;58.10;;;;;;5072750;28;20003;-63
2021/11/13 08:31:00;;;;;;;;;;;11.20;58.10;;;;;;5088446;28;20049;-63
2021/11/13 08:33:28;;;;;;;;;;;11.20;58.10;;;;;;5084066;28;19912;-64
2021/11/13 08:35:54;;;;;;;;;;;11.20;58.10;;;;;;5072535;28;20007;-63
2021/11/13 08:38:20;;;;;;;;;;;11.30;58.20;;;;;;5072525;28;19939;-63
2021/11/13 08:40:47;;;;;;;;;;;11.30;58.10;;;;;;5072954;28;19958;-63
2021/11/13 08:43:13;;;;;;;;;;;11.30;57.90;;;;;;5071285;28;19912;-63
2021/11/13 08:45:38;;;;;;;;;;;11.30;57.90;;;;;;5073700;28;19913;-63
2021/11/13 08:48:04;;;;;;;;;;;11.40;58.00;;;;;;5092997;28;19931;-63
2021/11/13 08:50:30;;;;;;;;;;;11.30;57.70;;;;;;5092964;28;19938;-63
2021/11/13 08:52:57;;;;;;;;;;;11.30;58.30;;;;;;5092614;28;19916;-63
2021/11/13 08:55:24;;;;;;;;;;;11.30;57.70;;;;;;5092549;28;19913;-64
2021/11/13 08:57:50;;;;;;;;;;;11.30;57.60;;;;;;5096773;28;19916;-64
2021/11/13 09:00:18;;;;;;;;;;;11.30;57.60;;;;;;5087017;28;19908;-64
2021/11/13 09:02:44;;;;;;;;;;;11.30;57.50;;;;;;5075370;28;19917;-64
2021/11/13 09:05:09;;;;;;;;;;;11.40;57.70;;;;;;5091487;28;19912;-63
2021/11/13 09:07:36;;;;;;;;;;;11.40;57.60;;;;;;5096765;28;19915;-64
2021/11/13 09:10:03;;;;;;;;;;;11.40;57.60;;;;;;5095157;28;19912;-64
2021/11/13 09:12:29;;;;;;;;;;;11.40;57.50;;;;;;5097059;28;19909;-64
2021/11/13 09:14:57;;;;;;;;;;;11.50;57.60;;;;;;5095005;28;19920;-64
2021/11/13 09:17:24;;;;;;;;;;;11.50;57.60;;;;;;5096740;28;19939;-64
2021/11/13 09:19:49;;;;;;;;;;;11.50;57.60;;;;;;5096549;28;19927;-64
2021/11/13 09:22:15;;;;;;;;;;;11.60;57.60;;;;;;5096710;28;19908;-64
2021/11/13 09:24:41;;;;;;;;;;;11.70;57.50;;;;;;5088318;28;19912;-65
2021/11/13 09:27:07;;;;;;;;;;;11.70;57.40;;;;;;5096294;28;19912;-64
2021/11/13 09:29:32;;;;;;;;;;;11.70;57.30;;;;;;5096752;28;20346;-65
2021/11/13 09:31:58;;;;;;;;;;;11.70;57.20;;;;;;5096673;28;19965;-64
2021/11/13 09:34:23;;;;;;;;;;;11.70;57.20;;;;;;5096340;28;20426;-65
2021/11/13 09:36:49;;;;;;;;;;;11.80;57.20;;;;;;5073135;28;19916;-64
2021/11/13 09:39:16;;;;;;;;;;;11.80;57.20;;;;;;5076058;28;20343;-64
2021/11/13 09:41:42;;;;;;;;;;;11.80;57.20;;;;;;5076463;28;19912;-64
2021/11/13 09:44:08;;;;;;;;;;;11.80;57.00;;;;;;5074576;28;19915;-64
2021/11/13 09:46:33;;;;;;;;;;;11.80;56.90;;;;;;5088431;28;20281;-64
2021/11/13 09:48:59;;;;;;;;;;;11.70;56.80;;;;;;5096193;28;19961;-63
2021/11/13 09:51:25;;;;;;;;;;;11.70;56.80;;;;;;5094041;28;19912;-64
2021/11/13 09:53:51;;;;;;;;;;;11.70;56.80;;;;;;5096156;28;20313;-63
2021/11/13 09:56:17;;;;;;;;;;;11.70;56.80;;;;;;5095307;28;19912;-63
2021/11/13 09:58:42;;;;;;;;;;;11.70;56.90;;;;;;5096120;28;19908;-64
2021/11/13 10:01:09;;;;;;;;;;;11.70;56.90;;;;;;5096044;28;19916;-64
2021/11/13 10:03:35;;;;;;;;;;;11.70;57.00;;;;;;5095598;28;19919;-64
2021/11/13 10:06:02;;;;;;;;;;;11.80;57.10;;;;;;5095897;28;19908;-64
2021/11/13 10:08:28;;;;;;;;;;;11.90;57.30;;;;;;5095535;28;19919;-64
2021/11/13 10:10:58;;;;;;;;;;;11.90;57.30;;;;;;5087815;28;20342;-64
2021/11/13 10:13:32;;;;;;;;;;;12.10;57.20;;;;;;5093690;28;19924;-64
2021/11/13 10:15:59;;;;;;;;;;;12.10;57.00;;;;;;5095437;28;19997;-65
2021/11/13 10:18:27;;;;;;;;;;;12.20;57.00;;;;;;5093917;28;19944;-65
2021/11/13 10:21:00;;;;;;;;;;;12.20;56.90;;;;;;5093889;28;19912;-65
2021/11/13 10:23:26;;;;;;;;;;;12.30;56.70;;;;;;5095701;28;20386;-63
2021/11/13 10:25:59;;;;;;;;;;;12.30;56.50;;;;;;5095228;28;19955;-64
2021/11/13 10:28:25;;;;;;;;;;;12.40;56.60;;;;;;5095145;28;19912;-63
2021/11/13 10:31:04;;;;;;;;;;;12.50;56.60;;;;;;5095534;28;19930;-64
2021/11/13 10:33:33;;;;;;;;;;;12.50;56.60;;;;;;5090443;28;20377;-64
2021/11/13 10:35:59;;;;;;;;;;;12.60;56.60;;;;;;5087622;28;19912;-64
2021/11/13 10:38:28;;;;;;;;;;;12.70;56.50;;;;;;5094928;28;19916;-64
2021/11/13 10:40:55;;;;;;;;;;;12.70;56.20;;;;;;5095381;28;19966;-64
2021/11/13 10:43:30;;;;;;;;;;;12.70;55.80;;;;;;5095198;28;20411;-64
2021/11/13 10:46:00;;;;;;;;;;;12.70;55.60;;;;;;5094396;28;19962;-64
2021/11/13 10:48:25;;;;;;;;;;;12.70;55.50;;;;;;5054955;28;19912;-64
2021/11/13 10:50:51;;;;;;;;;;;12.70;55.50;;;;;;5073455;28;19919;-64
2021/11/13 10:53:24;;;;;;;;;;;12.70;55.30;;;;;;5073442;28;19908;-64
2021/11/13 10:56:06;;;;;;;;;;;12.60;55.90;;;;;;5074721;28;19940;-64
2021/11/13 10:58:33;;;;;;;;;;;12.60;55.30;;;;;;5073248;28;19916;-64
2021/11/13 11:01:00;;;;;;;;;;;12.60;55.40;;;;;;5074557;28;19913;-64
2021/11/13 11:03:33;;;;;;;;;;;12.60;55.60;;;;;;5085788;28;19913;-64
2021/11/13 11:05:59;;;;;;;;;;;12.60;55.70;;;;;;5094867;28;19915;-65
2021/11/13 11:08:26;;;;;;;;;;;12.60;55.50;;;;;;5080803;28;19992;-64
2021/11/13 11:10:52;;;;;;;;;;;12.70;55.70;;;;;;5074352;28;19916;-64
2021/11/13 11:13:37;;;;;;;;;;;12.80;56.00;;;;;;5074001;28;19916;-64
2021/11/13 11:16:03;;;;;;;;;;;13.00;56.20;;;;;;5073811;28;19939;-63
2021/11/13 11:18:48;;;;;;;;;;;13.10;56.30;;;;;;5073839;28;20370;-65
2021/11/13 11:21:14;;;;;;;;;;;13.30;55.90;;;;;;5075127;28;20027;-64
2021/11/13 11:23:39;;;;;;;;;;;13.40;55.40;;;;;;5074118;28;19942;-65
2021/11/13 11:26:13;;;;;;;;;;;13.60;55.20;;;;;;5072473;28;19966;-65
2021/11/13 11:28:57;;;;;;;;;;;13.70;55.20;;;;;;5072066;28;19920;-64
2021/11/13 11:31:41;;;;;;;;;;;13.80;54.90;;;;;;5073050;28;20342;-64
2021/11/13 11:34:17;;;;;;;;;;;13.90;54.70;;;;;;5069273;28;20373;-64
2021/11/13 11:36:42;;;;;;;;;;;13.90;54.30;;;;;;5074845;28;19912;-64
2021/11/13 11:39:08;;;;;;;;;;;14.00;54.10;;;;;;5093703;28;19957;-64
2021/11/13 11:41:33;;;;;;;;;;;14.00;53.90;;;;;;5092544;28;19912;-64
2021/11/13 11:43:59;;;;;;;;;;;14.10;53.70;;;;;;5073571;28;19953;-64
2021/11/13 11:46:27;;;;;;;;;;;14.10;53.60;;;;;;5088586;28;20050;-64
2021/11/13 11:48:53;;;;;;;;;;;14.00;53.30;;;;;;5093963;28;19908;-64
2021/11/13 11:51:19;;;;;;;;;;;14.00;53.20;;;;;;5093863;28;20007;-64
2021/11/13 11:53:44;;;;;;;;;;;14.00;53.20;;;;;;5093957;28;20377;-64
2021/11/13 11:56:10;;;;;;;;;;;14.00;53.30;;;;;;5093190;28;19916;-64
2021/11/13 11:58:35;;;;;;;;;;;14.00;53.20;;;;;;5093856;28;19915;-64
2021/11/13 12:01:02;;;;;;;;;;;13.90;52.90;;;;;;5080910;28;20003;-65
2021/11/13 12:03:35;;;;;;;;;;;13.90;52.90;;;;;;5073142;28;19921;-64
2021/11/13 12:06:01;;;;;;;;;;;13.80;52.90;;;;;;5067444;28;20421;-64
2021/11/13 12:08:27;;;;;;;;;;;13.80;52.90;;;;;;5072903;28;19920;-64
2021/11/13 12:10:54;;;;;;;;;;;13.70;52.70;;;;;;5073339;28;19952;-64
2021/11/13 12:13:27;;;;;;;;;;;13.60;52.70;;;;;;5072723;28;20278;-64
2021/11/13 12:15:57;;;;;;;;;;;13.50;52.70;;;;;;5073234;28;19991;-64
2021/11/13 12:18:27;;;;;;;;;;;13.40;52.80;;;;;;5077323;28;19970;-65
2021/11/13 12:21:07;;;;;;;;;;;13.30;53.00;;;;;;5077005;28;19948;-64
2021/11/13 12:23:43;;;;;;;;;;;13.20;53.10;;;;;;5053150;28;19909;-64
2021/11/13 12:26:18;;;;;;;;;;;13.10;53.20;;;;;;5063671;28;19913;-64
2021/11/13 12:28:46;;;;;;;;;;;13.00;53.20;;;;;;5075048;28;19913;-64
2021/11/13 12:31:18;;;;;;;;;;;12.90;53.30;;;;;;5065790;28;20007;-64
2021/11/13 12:33:46;;;;;;;;;;;12.80;53.50;;;;;;5055727;28;19908;-64
2021/11/13 12:36:18;;;;;;;;;;;12.70;53.70;;;;;;5071601;28;19909;-64
2021/11/13 12:38:54;;;;;;;;;;;12.70;53.80;;;;;;5072705;28;19913;-63
2021/11/13 12:41:26;;;;;;;;;;;12.70;54.10;;;;;;5081317;28;19981;-63
2021/11/13 12:43:52;;;;;;;;;;;12.70;54.20;;;;;;5093107;28;19916;-64
2021/11/13 12:46:29;;;;;;;;;;;12.70;54.30;;;;;;5073118;28;20365;-63
2021/11/13 12:49:13;;;;;;;;;;;12.70;54.40;;;;;;5071841;28;19996;-63
2021/11/13 12:51:41;;;;;;;;;;;12.80;54.50;;;;;;5071851;28;19915;-63
2021/11/13 12:54:22;;;;;;;;;;;12.80;54.60;;;;;;5084218;28;19912;-63
2021/11/13 12:56:58;;;;;;;;;;;12.80;54.60;;;;;;5091939;28;20353;-63
2021/11/13 12:59:26;;;;;;;;;;;13.00;54.80;;;;;;5091970;28;19995;-63
2021/11/13 13:01:53;;;;;;;;;;;13.00;54.70;;;;;;5091936;28;20285;-63
2021/11/13 13:04:19;;;;;;;;;;;13.20;54.60;;;;;;5091921;28;20338;-63
2021/11/13 13:06:45;;;;;;;;;;;13.20;54.30;;;;;;5081407;28;19920;-63
2021/11/13 13:09:12;;;;;;;;;;;13.30;54.20;;;;;;5089781;28;19951;-63
2021/11/13 13:11:53;;;;;;;;;;;13.30;54.10;;;;;;5090094;28;20280;-64
2021/11/13 13:14:20;;;;;;;;;;;13.40;54.10;;;;;;5091623;28;19920;-63
2021/11/13 13:16:48;;;;;;;;;;;13.40;54.00;;;;;;5085829;28;19920;-63
2021/11/13 13:19:14;;;;;;;;;;;13.40;53.80;;;;;;5072917;28;20672;-64
2021/11/13 13:21:47;;;;;;;;;;;13.40;53.80;;;;;;5077918;28;19916;-64
2021/11/13 13:24:13;;;;;;;;;;;13.40;53.70;;;;;;5076980;28;20004;-63
2021/11/13 13:26:43;;;;;;;;;;;13.30;53.50;;;;;;5072301;28;19982;-64
2021/11/13 13:29:12;;;;;;;;;;;13.30;53.60;;;;;;5072462;28;19913;-63
2021/11/13 13:31:38;;;;;;;;;;;13.40;53.80;;;;;;5051474;28;19916;-63
2021/11/13 13:34:04;;;;;;;;;;;13.40;53.80;;;;;;5051765;28;19921;-65
2021/11/13 13:36:29;;;;;;;;;;;13.30;53.70;;;;;;5075388;28;19927;-64
2021/11/13 13:38:56;;;;;;;;;;;13.30;53.50;;;;;;5082995;28;19916;-65
2021/11/13 13:41:23;;;;;;;;;;;13.30;53.60;;;;;;5071465;28;19915;-65
2021/11/13 13:43:50;;;;;;;;;;;13.30;53.70;;;;;;5074701;28;20269;-64
2021/11/13 13:46:21;;;;;;;;;;;13.20;53.70;;;;;;5077973;28;19912;-64
2021/11/13 13:48:49;;;;;;;;;;;13.30;54.40;;;;;;5095645;28;19916;-64
2021/11/13 13:51:15;;;;;;;;;;;13.20;53.70;;;;;;5095298;28;20343;-64
2021/11/13 13:53:48;;;;;;;;;;;13.20;53.70;;;;;;5094209;28;19961;-64
2021/11/13 13:56:30;;;;;;;;;;;13.20;53.80;;;;;;5093152;28;19923;-64
2021/11/13 13:58:58;;;;;;;;;;;13.20;53.80;;;;;;5095390;28;19908;-64
2021/11/13 14:01:25;;;;;;;;;;;13.10;53.80;;;;;;5095255;28;20365;-64
2021/11/13 14:03:51;;;;;;;;;;;13.10;53.80;;;;;;5095128;28;20271;-64
2021/11/13 14:06:22;;;;;;;;;;;13.10;53.80;;;;;;5094259;28;19919;-65
2021/11/13 14:08:48;;;;;;;;;;;13.10;53.90;;;;;;5095296;28;19908;-64
2021/11/13 14:11:20;;;;;;;;;;;13.10;53.90;;;;;;5094965;28;19908;-64
2021/11/13 14:13:46;;;;;;;;;;;13.10;54.10;;;;;;5093867;28;19927;-64
2021/11/13 14:16:12;;;;;;;;;;;13.10;54.00;;;;;;5086018;28;19996;-64